Time;durP1;ratioP1;P1;durP2;ratioP2;P2;SDS_P1;SDS_P2;PMS_P1;PMS_P2;Temp;Humidity;BMP_temperature;BMP_pressure;BME280_temperature;BME280_humidity;BME280_pressure;Samples;Min_cycle;Max_cycle;Signal;HPM_P1;HPM_P2
2022/08/22 00:01:17;;;;;;;1.90;1.20;;;20.40;94.60;;;;;;5047286;28;20059;-34
2022/08/22 00:03:55;;;;;;;3.70;1.35;;;20.40;94.60;;;;;;5046352;28;20427;-35
2022/08/22 00:06:32;;;;;;;2.25;1.30;;;20.40;94.70;;;;;;5046946;28;20041;-35
2022/08/22 00:09:07;;;;;;;3.25;1.35;;;20.40;94.80;;;;;;5046789;28;20047;-36
2022/08/22 00:12:02;;;;;;;4.32;1.67;;;20.40;94.90;;;;;;5046109;28;20527;-36
2022/08/22 00:14:47;;;;;;;4.32;1.55;;;20.40;95.00;;;;;;5037631;28;20021;-35
2022/08/22 00:17:41;;;;;;;1.23;1.00;;;20.30;95.00;;;;;;5046605;28;20381;-35
2022/08/22 00:20:11;;;;;;;4.28;1.38;;;20.30;95.00;;;;;;5045391;28;20190;-35
2022/08/22 00:23:02;;;;;;;4.30;1.63;;;20.30;95.20;;;;;;5046342;28;20028;-36
2022/08/22 00:25:46;;;;;;;5.43;1.70;;;20.30;95.30;;;;;;5045696;28;20033;-36
2022/08/22 00:28:32;;;;;;;3.78;1.60;;;20.20;95.30;;;;;;5046445;28;20124;-36
2022/08/22 00:31:21;;;;;;;3.63;1.45;;;20.20;95.40;;;;;;5046959;28;20029;-36
2022/08/22 00:33:55;;;;;;;2.60;1.20;;;20.20;95.50;;;;;;5033984;28;20069;-36
2022/08/22 00:36:42;;;;;;;3.17;1.67;;;20.20;95.50;;;;;;5046734;28;20500;-36
2022/08/22 00:39:10;;;;;;;3.17;1.10;;;20.20;95.60;;;;;;5045646;28;20048;-35
2022/08/22 00:41:52;;;;;;;2.55;1.10;;;20.10;95.60;;;;;;5046437;28;20472;-36
2022/08/22 00:44:50;;;;;;;3.78;1.40;;;20.10;95.70;;;;;;5045859;28;20381;-36
2022/08/22 00:47:37;;;;;;;4.63;1.75;;;20.10;95.80;;;;;;5033096;28;20041;-36
2022/08/22 00:50:48;;;;;;;2.38;1.15;;;20.10;95.80;;;;;;5042997;28;20763;-36
2022/08/22 00:53:21;;;;;;;2.85;1.27;;;20.00;95.90;;;;;;5045463;28;20021;-35
2022/08/22 00:55:53;;;;;;;5.35;1.50;;;20.10;95.90;;;;;;5045997;28;20032;-36
2022/08/22 00:58:32;;;;;;;6.37;1.40;;;20.00;96.00;;;;;;5045991;28;20048;-36
2022/08/22 01:01:05;;;;;;;3.88;1.50;;;20.00;96.00;;;;;;5035337;28;20472;-35
2022/08/22 01:03:43;;;;;;;2.58;1.20;;;20.00;96.40;;;;;;5045407;28;20017;-36
2022/08/22 01:06:40;;;;;;;4.47;1.45;;;20.00;96.20;;;;;;5036542;28;20191;-34
2022/08/22 01:09:12;;;;;;;3.95;1.55;;;20.00;96.30;;;;;;5044845;28;20586;-35
2022/08/22 01:11:41;;;;;;;5.13;1.58;;;19.90;96.40;;;;;;5045856;28;20107;-35
2022/08/22 01:14:36;;;;;;;3.67;1.60;;;19.90;96.40;;;;;;5045389;28;20029;-35
2022/08/22 01:17:16;;;;;;;3.80;1.95;;;19.90;96.50;;;;;;5046846;28;20041;-35
2022/08/22 01:20:06;;;;;;;2.40;1.20;;;19.90;96.60;;;;;;5046038;28;20024;-36
2022/08/22 01:23:09;;;;;;;2.75;1.35;;;19.90;96.60;;;;;;5044693;28;20487;-35
2022/08/22 01:26:06;;;;;;;;;;;19.90;96.70;;;;;;5044621;28;20151;-35
2022/08/22 01:29:12;;;;;;;3.88;1.60;;;19.90;96.60;;;;;;5024993;28;19909;-35
2022/08/22 01:32:14;;;;;;;2.53;1.50;;;19.90;96.70;;;;;;5044139;28;20036;-36
2022/08/22 01:35:07;;;;;;;4.15;1.50;;;19.90;96.80;;;;;;5045491;28;20033;-35
2022/08/22 01:38:08;;;;;;;3.47;1.48;;;19.90;96.80;;;;;;5045929;28;20109;-35
2022/08/22 01:40:56;;;;;;;5.00;2.03;;;19.90;96.90;;;;;;5040939;28;20063;-36
2022/08/22 01:43:42;;;;;;;4.35;1.65;;;19.90;97.10;;;;;;5045087;28;20079;-36
2022/08/22 01:46:38;;;;;;;6.10;1.80;;;19.90;97.10;;;;;;5045246;28;20056;-34
2022/08/22 01:49:19;;;;;;;4.50;1.67;;;19.90;97.20;;;;;;5025951;28;20524;-35
2022/08/22 01:52:06;;;;;;;2.53;1.30;;;19.90;97.20;;;;;;5043820;28;20095;-37
2022/08/22 01:55:10;;;;;;;4.05;1.30;;;19.90;97.20;;;;;;5045239;28;20123;-36
2022/08/22 01:57:55;;;;;;;5.20;1.95;;;19.90;97.20;;;;;;5020963;28;20092;-36
2022/08/22 02:00:24;;;;;;;2.10;1.35;;;19.90;97.30;;;;;;5030105;28;20056;-36
2022/08/22 02:02:58;;;;;;;6.20;1.65;;;19.90;97.30;;;;;;5045019;28;20025;-36
2022/08/22 02:05:53;;;;;;;3.58;1.52;;;19.90;97.40;;;;;;5044112;28;20041;-34
2022/08/22 02:08:36;;;;;;;2.00;1.20;;;19.90;97.40;;;;;;5032160;28;20113;-35
2022/08/22 02:11:06;;;;;;;2.38;1.40;;;19.90;97.50;;;;;;5043803;28;20484;-36
2022/08/22 02:13:50;;;;;;;4.55;1.50;;;19.90;97.50;;;;;;5044058;28;20037;-36
2022/08/22 02:16:37;;;;;;;4.03;1.40;;;19.90;97.60;;;;;;5044371;28;20132;-34
2022/08/22 02:19:13;;;;;;;3.92;1.52;;;19.90;97.60;;;;;;5043928;28;20143;-35
2022/08/22 02:21:38;;;;;;;3.08;1.42;;;19.90;97.60;;;;;;5044595;28;20017;-36
2022/08/22 02:24:31;;;;;;;4.45;1.60;;;19.90;97.70;;;;;;5044644;28;20098;-35
2022/08/22 02:27:15;;;;;;;3.60;1.65;;;19.90;97.80;;;;;;5044576;28;20032;-37
2022/08/22 02:30:10;;;;;;;5.43;1.70;;;19.90;97.80;;;;;;5044879;28;20135;-36
2022/08/22 02:33:01;;;;;;;3.33;1.50;;;19.80;97.80;;;;;;5043602;28;20028;-35
2022/08/22 02:35:55;;;;;;;4.40;1.60;;;19.90;97.90;;;;;;5043789;28;20029;-36
2022/08/22 02:38:49;;;;;;;2.92;1.52;;;19.90;97.90;;;;;;5043798;28;20503;-35
2022/08/22 02:41:42;;;;;;;5.28;1.50;;;19.90;97.90;;;;;;5044696;28;20032;-36
2022/08/22 02:44:32;;;;;;;4.30;1.75;;;19.80;98.00;;;;;;5043072;28;20036;-36
2022/08/22 02:47:34;;;;;;;4.55;1.70;;;19.80;98.10;;;;;;5042880;28;20021;-37
2022/08/22 02:50:28;;;;;;;3.00;1.58;;;19.80;98.10;;;;;;5031032;28;20056;-35
2022/08/22 02:53:15;;;;;;;4.18;1.77;;;19.70;98.10;;;;;;5041567;28;20040;-37
2022/08/22 02:55:53;;;;;;;6.85;1.80;;;19.70;98.20;;;;;;5044338;28;20032;-37
2022/08/22 02:58:40;;;;;;;3.13;1.73;;;19.70;98.30;;;;;;5044098;28;20450;-37
2022/08/22 03:01:28;;;;;;;4.10;1.65;;;19.70;98.40;;;;;;5023469;28;20114;-36
2022/08/22 03:04:14;;;;;;;4.03;1.67;;;19.70;98.40;;;;;;5041055;28;20024;-35
2022/08/22 03:06:58;;;;;;;5.65;1.83;;;19.70;98.50;;;;;;5043665;28;20045;-36
2022/08/22 03:09:29;;;;;;;5.18;1.95;;;19.70;98.50;;;;;;5043714;28;20107;-36
2022/08/22 03:12:20;;;;;;;7.10;1.90;;;19.70;98.50;;;;;;5043711;28;20111;-37
2022/08/22 03:14:59;;;;;;;3.38;1.30;;;19.70;98.60;;;;;;5041936;28;20512;-35
2022/08/22 03:17:49;;;;;;;5.50;2.22;;;19.70;98.60;;;;;;5044016;28;20164;-36
2022/08/22 03:20:39;;;;;;;3.50;1.75;;;19.70;98.70;;;;;;5042560;28;20021;-35
2022/08/22 03:23:32;;;;;;;5.65;1.70;;;19.70;98.70;;;;;;5043255;28;20352;-37
2022/08/22 03:26:17;;;;;;;4.07;1.63;;;19.70;98.80;;;;;;5038406;28;20116;-37
2022/08/22 03:28:55;;;;;;;4.43;2.25;;;19.70;98.80;;;;;;5047207;28;20029;-37
2022/08/22 03:31:24;;;;;;;3.78;1.48;;;19.60;98.90;;;;;;5047729;28;20503;-37
2022/08/22 03:34:21;;;;;;;3.50;1.90;;;19.70;99.00;;;;;;5047251;28;20087;-36
2022/08/22 03:37:08;;;;;;;5.70;1.67;;;19.60;99.00;;;;;;5046676;28;20036;-36
2022/08/22 03:40:04;;;;;;;3.50;1.60;;;19.60;99.10;;;;;;5047395;28;20078;-34
2022/08/22 03:42:59;;;;;;;3.40;1.70;;;19.60;99.10;;;;;;5026862;28;20032;-35
2022/08/22 03:45:53;;;;;;;4.40;1.63;;;19.50;99.10;;;;;;5044926;28;20491;-36
2022/08/22 03:48:27;;;;;;;4.60;1.70;;;19.50;99.20;;;;;;5047228;28;20088;-35
2022/08/22 03:50:53;;;;;;;4.78;2.20;;;19.50;99.20;;;;;;5045120;28;20492;-35
2022/08/22 03:53:44;;;;;;;4.50;2.30;;;19.50;99.20;;;;;;5047978;28;20021;-35
2022/08/22 03:56:29;;;;;;;3.45;2.03;;;19.50;99.40;;;;;;5047173;28;20025;-36
2022/08/22 03:59:10;;;;;;;6.05;1.83;;;19.50;99.50;;;;;;5047086;28;20467;-36
2022/08/22 04:02:08;;;;;;;3.60;1.73;;;19.50;99.50;;;;;;5044930;28;20033;-37
2022/08/22 04:05:19;;;;;;;4.30;1.80;;;19.50;99.50;;;;;;5045931;28;20055;-36
2022/08/22 04:08:06;;;;;;;4.13;2.05;;;19.50;99.60;;;;;;5041764;28;20094;-36
2022/08/22 04:11:25;;;;;;;3.05;1.60;;;19.40;99.60;;;;;;5046152;28;20056;-37
2022/08/22 04:14:20;;;;;;;3.47;1.70;;;19.50;99.60;;;;;;5004015;28;20034;-36
2022/08/22 04:17:03;;;;;;;3.75;1.88;;;19.50;99.60;;;;;;5045004;28;20049;-35
2022/08/22 04:19:41;;;;;;;3.58;1.80;;;19.40;99.60;;;;;;5046618;28;20119;-36
2022/08/22 04:22:32;;;;;;;5.43;1.75;;;19.50;99.70;;;;;;5043476;28;20029;-35
2022/08/22 04:25:15;;;;;;;3.33;1.63;;;19.50;99.70;;;;;;5045874;28;20029;-35
2022/08/22 04:27:51;;;;;;;4.45;1.88;;;19.50;99.70;;;;;;5035770;28;20025;-36
2022/08/22 04:30:28;;;;;;;4.22;1.88;;;19.50;99.70;;;;;;5047276;28;20036;-35
2022/08/22 04:33:14;;;;;;;3.35;1.67;;;19.50;99.80;;;;;;5035555;28;20033;-36
2022/08/22 04:36:03;;;;;;;6.82;1.90;;;19.50;99.80;;;;;;5046474;28;20524;-35
2022/08/22 04:38:47;;;;;;;4.28;2.00;;;19.50;99.80;;;;;;5045138;28;20037;-35
2022/08/22 04:41:24;;;;;;;3.50;1.70;;;19.60;99.80;;;;;;5047432;28;20407;-35
2022/08/22 04:43:52;;;;;;;2.80;1.75;;;19.60;99.80;;;;;;5046299;28;20033;-35
2022/08/22 04:46:44;;;;;;;3.13;1.50;;;19.50;99.80;;;;;;5045371;28;20159;-36
2022/08/22 04:49:21;;;;;;;3.78;1.70;;;19.50;99.80;;;;;;5047192;28;20021;-35
2022/08/22 04:51:52;;;;;;;3.35;1.55;;;19.50;99.90;;;;;;5046220;28;20048;-35
2022/08/22 04:54:42;;;;;;;4.13;1.90;;;19.50;99.90;;;;;;5045827;28;20449;-36
2022/08/22 04:57:47;;;;;;;4.22;1.90;;;19.50;99.90;;;;;;5045752;28;20037;-37
2022/08/22 05:00:14;;;;;;;3.72;1.80;;;19.50;99.90;;;;;;5025993;28;20164;-36
2022/08/22 05:02:47;;;;;;;4.90;1.80;;;19.50;99.90;;;;;;5040793;28;20017;-36
2022/08/22 05:05:35;;;;;;;3.13;1.67;;;19.50;99.90;;;;;;5046109;28;20187;-36
2022/08/22 05:08:04;;;;;;;4.28;1.77;;;19.50;99.90;;;;;;5043548;28;20031;-36
2022/08/22 05:10:35;;;;;;;5.80;2.05;;;19.50;99.90;;;;;;5045464;28;20435;-36
2022/08/22 05:13:13;;;;;;;3.08;1.83;;;19.50;99.90;;;;;;5045215;28;20033;-37
2022/08/22 05:15:45;;;;;;;4.75;1.70;;;19.50;99.90;;;;;;5025499;28;20033;-35
2022/08/22 05:18:23;;;;;;;3.67;1.80;;;19.40;99.90;;;;;;5041017;28;20531;-35
2022/08/22 05:20:52;;;;;;;3.45;1.70;;;19.40;99.90;;;;;;5024906;28;20021;-35
2022/08/22 05:23:29;;;;;;;5.15;2.10;;;19.40;99.90;;;;;;5041120;28;20025;-35
2022/08/22 05:26:00;;;;;;;3.33;1.67;;;19.40;99.90;;;;;;5045371;28;20029;-36
2022/08/22 05:28:39;;;;;;;4.13;1.88;;;19.40;99.90;;;;;;5044673;28;20029;-37
2022/08/22 05:31:20;;;;;;;4.45;2.03;;;19.40;99.90;;;;;;5045856;28;20136;-36
2022/08/22 05:33:51;;;;;;;3.63;1.85;;;19.40;99.90;;;;;;5044690;28;20027;-35
2022/08/22 05:36:34;;;;;;;3.70;2.00;;;19.40;99.90;;;;;;5045000;28;20451;-34
2022/08/22 05:39:24;;;;;;;4.30;2.00;;;19.40;99.90;;;;;;5044837;28;20028;-36
2022/08/22 05:41:52;;;;;;;3.63;1.95;;;19.40;99.90;;;;;;5024702;28;20128;-35
2022/08/22 05:44:37;;;;;;;6.93;2.60;;;19.50;99.90;;;;;;5052168;28;20024;-35
2022/08/22 05:47:19;;;;;;;4.82;2.00;;;19.50;99.90;;;;;;5044765;28;20037;-35
2022/08/22 05:50:01;;;;;;;3.58;1.95;;;19.50;99.90;;;;;;5043749;28;20056;-37
2022/08/22 05:52:58;;;;;;;3.88;1.52;;;19.50;99.90;;;;;;5044654;28;20197;-36
2022/08/22 05:55:39;;;;;;;3.85;1.90;;;19.50;99.90;;;;;;5040944;28;20559;-35
2022/08/22 05:58:26;;;;;;;3.50;1.88;;;19.60;99.90;;;;;;5043310;28;20531;-35
2022/08/22 06:01:00;;;;;;;4.70;2.00;;;19.60;99.90;;;;;;5033069;28;20435;-36
2022/08/22 06:03:57;;;;;;;4.80;1.80;;;19.70;99.90;;;;;;5042579;28;20045;-36
2022/08/22 06:06:25;;;;;;;4.00;1.83;;;19.70;99.90;;;;;;5036784;28;20084;-35
2022/08/22 06:09:07;;;;;;;4.88;1.88;;;19.70;99.90;;;;;;5043909;28;20029;-36
2022/08/22 06:11:44;;;;;;;3.60;2.20;;;19.70;99.90;;;;;;5043162;28;20036;-37
2022/08/22 06:14:27;;;;;;;5.97;2.45;;;19.80;99.90;;;;;;5044214;28;20033;-37
2022/08/22 06:17:10;;;;;;;5.85;2.03;;;19.80;99.90;;;;;;5043031;28;20036;-36
2022/08/22 06:19:41;;;;;;;3.88;2.03;;;19.90;99.90;;;;;;5042276;28;20107;-36
2022/08/22 06:22:08;;;;;;;4.38;1.95;;;19.90;99.90;;;;;;5042704;28;20021;-36
2022/08/22 06:24:36;;;;;;;2.58;1.65;;;20.00;99.90;;;;;;5042236;28;20075;-36
2022/08/22 06:27:07;;;;;;;4.80;2.17;;;20.00;99.90;;;;;;5043100;28;20025;-36
2022/08/22 06:29:39;;;;;;;3.15;1.85;;;20.00;99.90;;;;;;5043042;28;20040;-37
2022/08/22 06:32:19;;;;;;;3.70;1.70;;;20.10;99.80;;;;;;5042646;28;20464;-35
2022/08/22 06:34:46;;;;;;;3.40;1.90;;;20.20;99.70;;;;;;5042820;28;20029;-36
2022/08/22 06:37:23;;;;;;;2.47;1.60;;;20.30;99.60;;;;;;5043805;28;20052;-36
2022/08/22 06:39:51;;;;;;;5.60;2.08;;;20.40;99.50;;;;;;5042066;28;20124;-37
2022/08/22 06:42:22;;;;;;;2.80;1.70;;;20.40;99.50;;;;;;5044267;28;20024;-35
2022/08/22 06:44:58;;;;;;;4.68;1.80;;;20.40;99.40;;;;;;5043490;28;20021;-36
2022/08/22 06:47:26;;;;;;;4.55;1.90;;;20.50;99.40;;;;;;5044658;28;20035;-37
2022/08/22 06:49:57;;;;;;;6.22;2.00;;;20.50;99.40;;;;;;5044219;28;20021;-35
2022/08/22 06:52:25;;;;;;;3.83;1.90;;;20.50;99.30;;;;;;5043197;28;20048;-36
2022/08/22 06:55:02;;;;;;;5.25;1.88;;;20.50;99.20;;;;;;5043936;28;20355;-36
2022/08/22 06:57:33;;;;;;;5.13;1.80;;;20.60;99.20;;;;;;5043777;28;20118;-37
2022/08/22 07:00:04;;;;;;;5.22;1.75;;;20.60;99.10;;;;;;5043912;28;20496;-35
2022/08/22 07:02:38;;;;;;;6.18;2.38;;;20.60;99.10;;;;;;5047736;28;20075;-36
2022/08/22 07:05:08;;;;;;;3.42;1.70;;;20.60;99.10;;;;;;5047553;28;20049;-37
2022/08/22 07:07:35;;;;;;;3.58;1.90;;;20.70;99.00;;;;;;5043738;28;20024;-35
2022/08/22 07:10:01;;;;;;;3.88;2.03;;;20.80;99.00;;;;;;5047749;28;20464;-35
2022/08/22 07:12:30;;;;;;;3.50;1.50;;;20.80;98.90;;;;;;5047528;28;20055;-37
2022/08/22 07:15:09;;;;;;;4.32;2.03;;;20.90;98.90;;;;;;5047382;28;20036;-36
2022/08/22 07:17:35;;;;;;;3.55;1.90;;;20.90;98.80;;;;;;5047526;28;20033;-36
2022/08/22 07:20:04;;;;;;;5.88;2.78;;;20.90;98.70;;;;;;5046426;28;20293;-37
2022/08/22 07:22:33;;;;;;;2.88;1.63;;;21.00;98.60;;;;;;5047239;28;20123;-36
2022/08/22 07:25:13;;;;;;;5.20;1.80;;;21.00;98.60;;;;;;5046707;28;20028;-36
2022/08/22 07:28:01;;;;;;;3.85;1.58;;;21.00;98.50;;;;;;5046609;28;20033;-36
2022/08/22 07:30:40;;;;;;;5.63;1.90;;;21.00;98.40;;;;;;5046062;28;20090;-36
2022/08/22 07:33:23;;;;;;;3.05;1.60;;;21.00;98.30;;;;;;5047401;28;20399;-37
2022/08/22 07:36:12;;;;;;;3.03;1.40;;;21.00;98.50;;;;;;5047147;28;20036;-35
2022/08/22 07:38:45;;;;;;;2.75;1.60;;;21.10;98.30;;;;;;5046190;28;20064;-36
2022/08/22 07:41:18;;;;;;;1.90;1.58;;;21.10;98.20;;;;;;5046446;28;20025;-36
2022/08/22 07:43:50;;;;;;;4.07;1.70;;;21.10;98.10;;;;;;5046287;28;20558;-37
2022/08/22 07:46:32;;;;;;;3.92;1.90;;;21.10;98.10;;;;;;5047481;28;20036;-35
2022/08/22 07:49:10;;;;;;;3.05;1.63;;;21.10;98.10;;;;;;5042691;28;20586;-37
2022/08/22 07:51:50;;;;;;;5.95;2.50;;;21.10;98.00;;;;;;5047260;28;20163;-36
2022/08/22 07:54:33;;;;;;;3.10;1.75;;;21.10;98.00;;;;;;5045030;28;20139;-37
2022/08/22 07:57:05;;;;;;;3.20;1.50;;;21.00;98.00;;;;;;5046451;28;20534;-37
2022/08/22 07:59:34;;;;;;;3.40;1.50;;;21.00;98.00;;;;;;5046793;28;20025;-37
2022/08/22 08:02:05;;;;;;;3.35;1.60;;;21.00;98.00;;;;;;5046231;28;20094;-36
2022/08/22 08:04:34;;;;;;;2.92;1.63;;;21.00;98.10;;;;;;5044259;28;20118;-35
2022/08/22 08:07:04;;;;;;;1.98;1.30;;;21.00;98.10;;;;;;5046961;28;20025;-37
2022/08/22 08:09:34;;;;;;;2.65;1.70;;;21.00;98.10;;;;;;5044688;28;20021;-36
2022/08/22 08:12:04;;;;;;;2.72;1.40;;;21.00;98.10;;;;;;5046505;28;20112;-36
2022/08/22 08:14:31;;;;;;;2.55;1.38;;;21.00;98.10;;;;;;5046768;28;20369;-36
2022/08/22 08:16:56;;;;;;;3.45;1.73;;;21.10;98.10;;;;;;5045885;28;20056;-36
2022/08/22 08:19:23;;;;;;;5.38;1.90;;;21.10;98.10;;;;;;5046630;28;20190;-36
2022/08/22 08:21:54;;;;;;;2.13;1.42;;;21.20;98.00;;;;;;5046509;28;20156;-37
2022/08/22 08:24:31;;;;;;;5.47;2.30;;;21.30;97.90;;;;;;5046227;28;20036;-35
2022/08/22 08:29:54;;;;;;;2.50;1.40;;;21.50;97.60;;;;;;5042836;28;20043;-37
2022/08/22 08:32:22;;;;;;;3.65;1.65;;;21.50;97.50;;;;;;5045689;28;20028;-36
2022/08/22 08:34:49;;;;;;;3.88;1.50;;;21.60;97.40;;;;;;5045559;28;20072;-36
2022/08/22 08:37:28;;;;;;;4.32;1.73;;;21.60;97.40;;;;;;5046152;28;20021;-38
2022/08/22 08:39:58;;;;;;;3.08;1.60;;;21.60;97.30;;;;;;5043496;28;20466;-37
2022/08/22 08:43:37;;;;;;;3.92;1.85;;;21.70;97.30;;;;;;5044147;28;20424;-36
2022/08/22 08:46:15;;;;;;;2.85;1.40;;;21.70;97.30;;;;;;5047068;28;20116;-37
2022/08/22 08:49:04;;;;;;;2.13;1.33;;;21.80;97.30;;;;;;5045930;28;20082;-37
2022/08/22 08:51:46;;;;;;;3.75;1.23;;;21.80;97.40;;;;;;5033816;28;20025;-35
2022/08/22 08:54:14;;;;;;;3.45;1.55;;;21.80;97.20;;;;;;5043516;28;20025;-37
2022/08/22 08:57:06;;;;;;;4.82;1.52;;;21.80;97.10;;;;;;5034320;28;20029;-36
2022/08/22 09:00:01;;;;;;;3.10;1.50;;;21.80;97.20;;;;;;5045311;28;20052;-36
2022/08/22 09:02:32;;;;;;;3.53;1.63;;;21.80;97.20;;;;;;5045521;28;20025;-36
2022/08/22 09:05:36;;;;;;;3.00;1.38;;;21.80;97.30;;;;;;5045641;28;20059;-36
2022/08/22 09:08:28;;;;;;;2.33;1.35;;;21.80;97.30;;;;;;5045773;28;20055;-36
2022/08/22 09:11:29;;;;;;;4.13;1.50;;;21.70;97.30;;;;;;5045097;28;20186;-36
2022/08/22 09:14:31;;;;;;;3.03;1.48;;;21.80;97.30;;;;;;5024858;28;20420;-37
2022/08/22 09:17:34;;;;;;;4.13;1.90;;;21.80;97.20;;;;;;5042261;28;20047;-35
2022/08/22 09:20:45;;;;;;;3.95;2.05;;;21.90;97.20;;;;;;5044740;28;20033;-36
2022/08/22 09:23:19;;;;;;;3.72;1.40;;;22.00;97.10;;;;;;5039226;28;20060;-36
2022/08/22 09:25:49;;;;;;;2.88;1.50;;;22.00;97.00;;;;;;5044359;28;20374;-36
2022/08/22 09:28:28;;;;;;;3.30;1.83;;;22.10;96.90;;;;;;5044867;28;20468;-36
2022/08/22 09:31:27;;;;;;;2.50;1.58;;;22.20;96.90;;;;;;5044490;28;20020;-36
2022/08/22 09:34:20;;;;;;;3.05;1.77;;;22.20;96.80;;;;;;5044172;28;20029;-36
2022/08/22 09:37:16;;;;;;;4.35;1.67;;;22.30;96.70;;;;;;5044522;28;20036;-36
2022/08/22 09:40:21;;;;;;;2.95;1.50;;;22.40;96.60;;;;;;5025333;28;20515;-37
2022/08/22 09:42:58;;;;;;;3.13;1.35;;;22.50;96.40;;;;;;5040562;28;20029;-36
2022/08/22 09:45:39;;;;;;;3.38;2.00;;;22.60;96.30;;;;;;5044989;28;20063;-36
2022/08/22 09:48:29;;;;;;;4.30;1.92;;;22.70;96.10;;;;;;5041757;28;20117;-37
2022/08/22 09:51:17;;;;;;;3.40;1.48;;;22.70;95.90;;;;;;5044533;28;20025;-36
2022/08/22 09:54:21;;;;;;;2.92;1.23;;;22.80;95.80;;;;;;5035395;28;20091;-36
2022/08/22 09:56:59;;;;;;;3.20;1.50;;;22.80;95.60;;;;;;5043656;28;20472;-36
2022/08/22 10:00:02;;;;;;;2.65;1.35;;;22.90;95.40;;;;;;5044370;28;20123;-37
2022/08/22 10:02:36;;;;;;;3.35;1.30;;;22.90;95.30;;;;;;5043272;28;20035;-36
2022/08/22 10:05:18;;;;;;;2.83;1.23;;;23.00;95.20;;;;;;5044563;28;20110;-36
2022/08/22 10:08:11;;;;;;;3.35;1.50;;;23.00;95.00;;;;;;5043731;28;20028;-36
2022/08/22 10:10:55;;;;;;;2.47;1.40;;;23.10;94.90;;;;;;5023908;28;20432;-37
2022/08/22 10:13:33;;;;;;;3.90;1.65;;;23.10;94.80;;;;;;5042095;28;20455;-37
2022/08/22 10:16:12;;;;;;;4.15;1.60;;;23.10;94.50;;;;;;5043707;28;20116;-36
2022/08/22 10:18:55;;;;;;;5.18;1.67;;;23.20;94.40;;;;;;5044726;28;20045;-37
2022/08/22 10:21:37;;;;;;;1.90;1.33;;;23.30;94.30;;;;;;5044867;28;20037;-36
2022/08/22 10:24:10;;;;;;;3.47;1.10;;;23.40;94.30;;;;;;5042692;28;20108;-35
2022/08/22 10:26:45;;;;;;;4.15;1.40;;;23.50;94.20;;;;;;5044309;28;20469;-37
2022/08/22 10:29:36;;;;;;;3.40;1.48;;;23.60;94.00;;;;;;5043140;28;20076;-37
2022/08/22 10:32:24;;;;;;;4.43;1.77;;;23.60;93.80;;;;;;5042999;28;20021;-36
2022/08/22 10:34:55;;;;;;;6.47;1.80;;;23.70;93.60;;;;;;5043415;28;20364;-36
2022/08/22 10:37:45;;;;;;;2.22;1.50;;;23.70;93.20;;;;;;5043629;28;20032;-37
2022/08/22 10:40:26;;;;;;;3.00;1.30;;;23.80;93.00;;;;;;5034011;28;20036;-37
2022/08/22 10:43:00;;;;;;;3.10;1.40;;;23.80;92.90;;;;;;5043735;28;20080;-35
2022/08/22 10:45:33;;;;;;;3.05;1.50;;;23.70;92.70;;;;;;5043289;28;20333;-36
2022/08/22 10:48:05;;;;;;;2.00;1.30;;;23.80;92.70;;;;;;5043524;28;20025;-36
2022/08/22 10:50:39;;;;;;;1.60;1.05;;;23.80;92.70;;;;;;5033709;28;20025;-37
2022/08/22 10:53:33;;;;;;;2.15;1.20;;;23.80;92.60;;;;;;5043717;28;20031;-36
2022/08/22 10:56:12;;;;;;;3.60;1.27;;;23.90;92.20;;;;;;5035966;28;20079;-36
2022/08/22 10:59:15;;;;;;;2.92;1.52;;;23.90;92.00;;;;;;5042767;28;20033;-36
2022/08/22 11:02:11;;;;;;;2.55;1.48;;;24.00;91.80;;;;;;5041739;28;20134;-35
2022/08/22 11:05:07;;;;;;;3.50;1.60;;;24.00;91.80;;;;;;5043124;28;20049;-35
2022/08/22 11:07:47;;;;;;;3.22;1.27;;;24.00;91.80;;;;;;5023492;28;20029;-37
2022/08/22 11:10:31;;;;;;;3.42;1.27;;;23.90;91.80;;;;;;5042200;28;20064;-36
2022/08/22 11:13:14;;;;;;;5.10;1.70;;;24.00;91.70;;;;;;5043077;28;20056;-35
2022/08/22 11:16:06;;;;;;;3.65;1.63;;;24.00;91.40;;;;;;5043878;28;20017;-37
2022/08/22 11:18:46;;;;;;;3.50;1.55;;;24.00;91.00;;;;;;5043390;28;20465;-36
2022/08/22 11:21:15;;;;;;;2.17;1.20;;;24.00;90.90;;;;;;5041420;28;20036;-36
2022/08/22 11:23:51;;;;;;;4.20;1.80;;;24.10;90.80;;;;;;5043123;28;20047;-36
2022/08/22 11:26:43;;;;;;;3.05;1.27;;;24.10;90.70;;;;;;5040073;28;20028;-36
2022/08/22 11:29:15;;;;;;;3.97;1.40;;;24.30;90.40;;;;;;5043722;28;20060;-36
2022/08/22 11:32:08;;;;;;;4.22;1.58;;;24.40;90.20;;;;;;5043421;28;20059;-36
2022/08/22 11:34:40;;;;;;;4.00;1.63;;;24.60;89.80;;;;;;5041616;28;20021;-35
2022/08/22 11:37:28;;;;;;;3.17;1.52;;;24.60;88.80;;;;;;5043466;28;20385;-37
2022/08/22 11:40:15;;;;;;;2.22;1.38;;;24.70;88.30;;;;;;5043031;28;20048;-36
2022/08/22 11:43:08;;;;;;;2.40;1.13;;;24.80;88.40;;;;;;5043003;28;20029;-35
2022/08/22 11:45:41;;;;;;;2.40;1.52;;;24.90;88.10;;;;;;5043107;28;20158;-36
2022/08/22 11:48:30;;;;;;;3.00;1.15;;;25.00;87.30;;;;;;5046357;28;20025;-36
2022/08/22 11:51:23;;;;;;;3.33;1.50;;;25.00;87.00;;;;;;5046929;28;20029;-36
2022/08/22 11:53:58;;;;;;;2.50;1.20;;;25.00;86.40;;;;;;5047389;28;20025;-36
2022/08/22 11:56:41;;;;;;;2.45;1.10;;;25.10;86.20;;;;;;5047128;28;20025;-36
2022/08/22 11:59:27;;;;;;;3.78;1.10;;;25.10;86.20;;;;;;5047500;28;20033;-37
2022/08/22 12:02:00;;;;;;;2.70;1.30;;;25.20;85.60;;;;;;5045476;28;20349;-37
2022/08/22 12:04:40;;;;;;;3.10;1.10;;;25.20;84.90;;;;;;5046751;28;20141;-35
2022/08/22 12:07:26;;;;;;;1.45;0.80;;;25.30;84.80;;;;;;5046370;28;20547;-36
2022/08/22 12:10:06;;;;;;;2.78;1.50;;;25.30;85.00;;;;;;5045937;28;20029;-35
2022/08/22 12:12:52;;;;;;;3.72;1.50;;;25.40;84.70;;;;;;5047014;28;20035;-37
2022/08/22 12:15:22;;;;;;;5.15;1.30;;;25.40;83.90;;;;;;5046629;28;20131;-37
2022/08/22 12:17:55;;;;;;;3.80;1.55;;;25.50;83.90;;;;;;5045075;28;20032;-37
2022/08/22 12:20:32;;;;;;;2.50;1.30;;;25.60;83.50;;;;;;5046694;28;20477;-36
2022/08/22 12:23:25;;;;;;;4.18;1.92;;;25.70;83.20;;;;;;5044772;28;20104;-37
2022/08/22 12:26:28;;;;;;;2.05;1.40;;;25.80;82.60;;;;;;5046624;28;20104;-35
2022/08/22 12:29:17;;;;;;;3.42;1.50;;;25.90;82.20;;;;;;5037420;28;20376;-36
2022/08/22 12:32:16;;;;;;;2.63;1.60;;;25.90;82.30;;;;;;5046123;28;20425;-36
2022/08/22 12:34:56;;;;;;;3.65;1.70;;;26.10;82.30;;;;;;5045514;28;20025;-37
2022/08/22 12:37:34;;;;;;;3.42;1.27;;;26.20;82.00;;;;;;5045677;28;20086;-36
2022/08/22 12:40:00;;;;;;;4.70;1.23;;;26.30;81.90;;;;;;5046252;28;20040;-37
2022/08/22 12:42:50;;;;;;;2.22;1.40;;;26.40;82.00;;;;;;5045580;28;20038;-38
2022/08/22 12:45:22;;;;;;;2.05;1.30;;;26.50;81.60;;;;;;5045672;28;20021;-36
2022/08/22 12:48:02;;;;;;;3.50;1.60;;;26.60;81.50;;;;;;5045412;28;20056;-36
2022/08/22 12:50:41;;;;;;;3.47;1.48;;;26.80;81.00;;;;;;5045207;28;20037;-36
2022/08/22 12:53:21;;;;;;;2.03;1.35;;;26.90;80.70;;;;;;5045762;28;20125;-38
2022/08/22 12:56:01;;;;;;;2.03;1.30;;;26.90;80.30;;;;;;5045480;28;20029;-38
2022/08/22 12:59:00;;;;;;;3.15;1.27;;;27.00;80.40;;;;;;5044732;28;20367;-36
2022/08/22 13:01:32;;;;;;;5.53;1.83;;;27.00;80.00;;;;;;5026364;28;20044;-36
2022/08/22 13:04:04;;;;;;;2.22;1.40;;;27.00;79.50;;;;;;5043018;28;20033;-37
2022/08/22 13:06:35;;;;;;;3.47;1.90;;;27.00;78.80;;;;;;5043905;28;20115;-37
2022/08/22 13:09:41;;;;;;;4.32;1.83;;;27.00;77.60;;;;;;5045299;28;20086;-36
2022/08/22 13:12:38;;;;;;;4.07;1.45;;;26.90;77.30;;;;;;5024172;28;20044;-36
2022/08/22 13:15:27;;;;;;;3.05;1.40;;;26.90;77.50;;;;;;5044015;28;20035;-36
2022/08/22 13:17:55;;;;;;;2.42;1.52;;;26.90;77.40;;;;;;5041974;28;20049;-37
2022/08/22 13:20:23;;;;;;;6.05;3.72;;;26.90;77.40;;;;;;5044631;28;20135;-38
2022/08/22 13:22:49;;;;;;;3.28;2.75;;;26.90;77.50;;;;;;5045046;28;20488;-38
2022/08/22 13:25:22;;;;;;;4.28;2.35;;;26.90;77.70;;;;;;5045488;28;20029;-36
2022/08/22 13:27:51;;;;;;;3.45;1.80;;;26.90;77.30;;;;;;5045063;28;20037;-36
2022/08/22 13:30:42;;;;;;;5.18;1.38;;;27.00;77.30;;;;;;5045736;28;20025;-35
2022/08/22 13:33:12;;;;;;;2.55;1.58;;;27.10;77.20;;;;;;5043545;28;20068;-38
2022/08/22 13:35:43;;;;;;;3.15;1.38;;;27.10;76.90;;;;;;5044423;28;20052;-36
2022/08/22 13:38:12;;;;;;;2.08;1.42;;;27.20;76.50;;;;;;5045169;28;20045;-36
2022/08/22 13:40:44;;;;;;;2.13;1.50;;;27.30;76.00;;;;;;5044421;28;20025;-38
2022/08/22 13:43:16;;;;;;;2.30;1.42;;;27.30;76.10;;;;;;5045279;28;20056;-35
2022/08/22 13:45:53;;;;;;;2.67;1.50;;;27.30;75.70;;;;;;5044993;28;20013;-37
2022/08/22 13:48:24;;;;;;;2.25;1.20;;;27.30;75.70;;;;;;5044295;28;20127;-37
2022/08/22 13:51:29;;;;;;;1.50;1.08;;;27.40;76.00;;;;;;5044541;28;20025;-36
2022/08/22 13:54:21;;;;;;;2.53;1.15;;;27.40;75.90;;;;;;5044114;28;20113;-36
2022/08/22 13:56:47;;;;;;;;;;;27.40;75.60;;;;;;5036000;28;20025;-37
2022/08/22 13:59:24;;;;;;;2.00;1.30;;;27.50;75.70;;;;;;5045264;28;19921;-36
2022/08/22 14:02:25;;;;;;;2.25;1.20;;;27.50;75.20;;;;;;5033408;28;20033;-36
2022/08/22 14:04:52;;;;;;;3.75;1.50;;;27.50;74.90;;;;;;5043678;28;20052;-36
2022/08/22 14:07:28;;;;;;;1.73;1.20;;;27.60;74.90;;;;;;5045234;28;20025;-35